Woodburn, OR

6:42 AM PDT en Septiembre 01, 2014 (GMT -0700)
Woodburn City Hall | Change Station
CLOSE
Current Station
Estación meteorológica personal
Location: Woodburn, OR
Altura: 187 ft
Estaciones meteorológicas cercanas

Alt 187 ft 45.14 °N, 122.86 °W | Updated 2 minutes ago

Parcialmente nublado
Parcialmente nublado
54.3 ° F
Sensación térmica 54.3 ° F
N
0.0
Viento Variable Viento desde Este
Gusts 0.0 mph

Hoy
Alta -- | Baja -- ° F
--% Posibilidad de precipitaciones
Ayer
Alta -- | Baja -- ° F
Precip. -- pul
6:33 AM 7:48 PM
Creciente, 41% visible
Presión 30.09 pul
Visibilidad 10.0 Millas
Nubes Nubes dispersas 9500 ft
Punto de rocío 51 ° F
Humedad 90%
Precipitaciones 0.00 pul
Espesor de la nieve No disponible.
UV 0 de una escala de 12
Polen 3.50 de una escala de 12
Calidad del aire No disponible.
Flu Activity No disponible.
METAR KUAO 011253Z AUTO 00000KT 10SM SCT095 11/11 A3009 RMK AO2 SLP189 T01110106 $

More Conditions Fewer Conditions

Presión 30.09 pul
Visibilidad 10.0 Millas
Nubes Nubes dispersas 9500 ft
Punto de rocío 51 ° F
Humedad 90%
Precipitaciones 0.00 pul
Espesor de la nieve No disponible.
UV 0 de una escala de 12
Polen 3.50 de una escala de 12
Calidad del aire No disponible.
Flu Activity No disponible.
METAR KUAO 011253Z AUTO 00000KT 10SM SCT095 11/11 A3009 RMK AO2 SLP189 T01110106 $

More Conditions Fewer Conditions

10-Day Weather Forecast

Almanac

Astronomía

Sep. 01, 2014 Salida Puesta
Hora real 6:33 AM PDT 7:48 PM PDT
Crepúsculo civil 6:02 AM PDT 8:18 PM PDT
Crepúsculo náutico 5:26 AM PDT 8:55 PM PDT
Crepúsculo astronómico 4:47 AM PDT 9:33 PM PDT
Luna 1:43 PM PDT 11:35 PM PDT
Horas de luz 14h 15m
Horas de luz
13h 15m
Tomorrow will be 3m 2s shorter.
Creciente, 41% of the Moon is Illuminated
Hoy
Creciente
Sep 2
Cuarto creciente
Sep 8
Luna llena
Sep 15
Cuarto menguante
Sep 24
Nueva

Extremos de hoy

Máximos del estado Bajos del estado

Community

WunderPhotos

Upload Photos

1,749,222 ¡fotos cargadas!

Nearby

Grosos de nieve

Estación Profundido Altura
Peavine Ridge 3 in 3500 ft
North Fork 1 in 3120 ft
Blazed Alder 0 in 3650 ft
Daly Lake 0 in 3600 ft
Clackamas Lake 0 in 3400 ft

Actividad de terremotos

Ciudad Distance Mag. Tiempo y dato
No hay informes recientes de la actividad sísmica.
Magnitud mínima muestra es 2,5.

Temperaturas de aguas costeras

Lugar Temperatura
Sin partes meteorológicos de las estaciones

Estaciones meteorológicas cercanas